Time;durP1;ratioP1;P1;durP2;ratioP2;P2;SDS_P1;SDS_P2;PMS_P1;PMS_P2;Temp;Humidity;BMP_temperature;BMP_pressure;BME280_temperature;BME280_humidity;BME280_pressure;Samples;Min_cycle;Max_cycle;Signal;HPM_P1;HPM_P2
2022/09/20 00:01:24;;;;;;;4.25;1.75;;;12.30;99.90;;;;;;4974140;28;20038;-77
2022/09/20 00:03:56;;;;;;;3.97;1.67;;;12.30;99.90;;;;;;4973738;28;20130;-78
2022/09/20 00:06:27;;;;;;;1.98;1.08;;;12.30;99.90;;;;;;4972715;28;20039;-78
2022/09/20 00:08:54;;;;;;;1.60;1.25;;;12.30;99.90;;;;;;4973698;28;20122;-78
2022/09/20 00:11:27;;;;;;;6.63;1.73;;;12.30;99.90;;;;;;4972606;28;20037;-78
2022/09/20 00:13:55;;;;;;;2.72;1.35;;;12.40;99.90;;;;;;4972324;28;20031;-78
2022/09/20 00:16:35;;;;;;;2.95;1.52;;;12.20;99.90;;;;;;4973879;28;20023;-77
2022/09/20 00:19:03;;;;;;;3.20;1.42;;;12.20;99.90;;;;;;4973328;28;20036;-78
2022/09/20 00:21:31;;;;;;;2.17;1.00;;;12.20;99.90;;;;;;4973788;28;20030;-78
2022/09/20 00:23:57;;;;;;;1.73;1.10;;;12.40;99.90;;;;;;4973123;28;20395;-78
2022/09/20 00:26:27;;;;;;;3.83;1.25;;;12.50;99.90;;;;;;4972288;28;20031;-77
2022/09/20 00:28:54;;;;;;;5.88;2.17;;;12.50;99.90;;;;;;4973084;28;20062;-78
2022/09/20 00:31:19;;;;;;;5.20;1.40;;;12.40;99.90;;;;;;4972086;28;20057;-78
2022/09/20 00:36:30;;;;;;;1.70;0.82;;;12.50;99.90;;;;;;4973398;28;20039;-78
2022/09/20 00:39:01;;;;;;;7.45;1.60;;;12.40;99.90;;;;;;4973292;28;20027;-78
2022/09/20 00:41:27;;;;;;;;;;;12.30;99.90;;;;;;4972638;28;20045;-78
2022/09/20 00:43:54;;;;;;;5.43;1.23;;;12.20;99.90;;;;;;4971688;28;19914;-78
2022/09/20 00:46:43;;;;;;;3.17;1.58;;;12.10;99.90;;;;;;4973108;28;20034;-78
2022/09/20 00:49:21;;;;;;;1.35;1.10;;;12.10;99.90;;;;;;4971647;28;20034;-78
2022/09/20 00:52:00;;;;;;;7.10;2.47;;;12.10;99.90;;;;;;4971870;28;20035;-78
2022/09/20 00:54:28;;;;;;;5.57;1.52;;;12.20;99.90;;;;;;4972177;28;20114;-78
2022/09/20 00:56:53;;;;;;;2.08;1.38;;;12.20;99.90;;;;;;4971799;28;20019;-78
2022/09/20 00:59:38;;;;;;;2.00;1.35;;;12.00;99.90;;;;;;4971428;28;20030;-77
2022/09/20 01:02:26;;;;;;;3.05;1.40;;;12.00;99.90;;;;;;4971289;28;20116;-78
2022/09/20 01:04:51;;;;;;;3.53;1.83;;;12.00;99.90;;;;;;4957841;28;20066;-78
2022/09/20 01:07:24;;;;;;;2.65;1.30;;;12.00;99.90;;;;;;4947576;28;20055;-78
2022/09/20 01:09:51;;;;;;;3.47;1.73;;;12.10;99.90;;;;;;4951850;28;20114;-78
2022/09/20 01:12:33;;;;;;;4.88;1.00;;;12.10;99.90;;;;;;4951723;29;20043;-78
2022/09/20 01:15:01;;;;;;;3.65;1.25;;;12.10;99.90;;;;;;4949226;29;20023;-78
2022/09/20 01:17:31;;;;;;;3.17;1.23;;;12.20;99.90;;;;;;4932691;29;20035;-78
2022/09/20 01:20:15;;;;;;;2.25;1.58;;;12.20;99.90;;;;;;4932416;29;20032;-78
2022/09/20 01:23:26;;;;;;;4.43;0.88;;;12.20;99.90;;;;;;4933780;29;20032;-78
2022/09/20 01:26:25;;;;;;;1.38;0.90;;;12.10;99.90;;;;;;4934054;29;20028;-78
2022/09/20 01:29:30;;;;;;;1.20;0.70;;;12.10;99.90;;;;;;4947223;29;20122;-78
2022/09/20 01:32:02;;;;;;;1.45;0.60;;;12.00;99.90;;;;;;4946276;29;20035;-78
2022/09/20 01:34:36;;;;;;;2.40;1.15;;;12.10;99.90;;;;;;4933792;29;20066;-78
2022/09/20 01:37:32;;;;;;;1.70;0.98;;;12.10;99.90;;;;;;4933449;29;20396;-78
2022/09/20 01:40:51;;;;;;;9.50;1.45;;;12.10;99.90;;;;;;4947090;29;20023;-78
2022/09/20 01:43:37;;;;;;;0.68;0.40;;;12.20;99.90;;;;;;4932508;29;20035;-78
2022/09/20 01:46:33;;;;;;;1.08;0.60;;;12.20;99.90;;;;;;4934019;29;20054;-78
2022/09/20 01:49:26;;;;;;;2.85;0.63;;;12.10;99.90;;;;;;4933380;29;20035;-78
2022/09/20 01:52:28;;;;;;;2.25;0.93;;;12.10;99.90;;;;;;4933559;29;20047;-78
2022/09/20 01:55:23;;;;;;;0.90;0.70;;;12.10;99.90;;;;;;4933676;29;20038;-78
2022/09/20 01:58:23;;;;;;;7.63;0.75;;;12.10;99.90;;;;;;4946807;29;20047;-78
2022/09/20 02:02:00;;;;;;;3.17;1.10;;;12.10;99.90;;;;;;4947963;29;20042;-78
2022/09/20 02:04:57;;;;;;;2.00;0.98;;;12.10;99.90;;;;;;4946942;28;20027;-78
2022/09/20 02:07:51;;;;;;;16.52;1.88;;;12.20;99.90;;;;;;4939795;29;20484;-78
2022/09/20 02:10:38;;;;;;;1.83;0.93;;;12.20;99.90;;;;;;4939430;29;20039;-78
2022/09/20 02:13:40;;;;;;;2.92;0.70;;;12.20;99.90;;;;;;4939403;29;20102;-78
2022/09/20 02:16:47;;;;;;;3.35;1.50;;;12.20;99.90;;;;;;4953810;29;20039;-78
2022/09/20 02:19:45;;;;;;;1.42;1.02;;;12.10;99.90;;;;;;4958453;28;20039;-78
2022/09/20 02:22:54;;;;;;;5.47;0.90;;;12.00;99.90;;;;;;4958772;28;20110;-78
2022/09/20 02:25:51;;;;;;;4.00;0.70;;;12.10;99.90;;;;;;4958624;28;20045;-79
2022/09/20 02:28:23;;;;;;;4.90;0.82;;;12.10;99.90;;;;;;4958587;28;20051;-78
2022/09/20 02:31:04;;;;;;;2.40;0.90;;;12.10;99.90;;;;;;4958280;28;20507;-78
2022/09/20 02:34:07;;;;;;;;;;;12.10;99.90;;;;;;4957702;28;20081;-78
2022/09/20 02:36:57;;;;;;;1.33;0.70;;;12.10;99.90;;;;;;4958751;28;19915;-78
2022/09/20 02:39:44;;;;;;;1.33;0.85;;;12.10;99.90;;;;;;4958372;28;20046;-78
2022/09/20 02:42:37;;;;;;;1.42;0.55;;;12.10;99.90;;;;;;4957541;28;20042;-78
2022/09/20 02:45:30;;;;;;;5.53;1.05;;;11.90;99.90;;;;;;4957641;28;20027;-78
2022/09/20 02:48:03;;;;;;;1.95;1.15;;;11.80;99.90;;;;;;4957321;28;20031;-78
2022/09/20 02:50:34;;;;;;;3.83;1.52;;;11.80;99.90;;;;;;4956958;28;20034;-78
2022/09/20 02:53:28;;;;;;;4.82;0.90;;;11.80;99.90;;;;;;4958459;28;20066;-78
2022/09/20 02:56:31;;;;;;;6.60;1.20;;;11.90;99.90;;;;;;4959887;28;20034;-78
2022/09/20 02:59:23;;;;;;;0.75;0.63;;;11.80;99.90;;;;;;4957155;28;20059;-78
2022/09/20 03:02:25;;;;;;;2.33;1.35;;;11.90;99.90;;;;;;4956692;28;20030;-78
2022/09/20 03:05:21;;;;;;;2.33;1.08;;;11.80;99.90;;;;;;4957606;28;20035;-78
2022/09/20 03:07:58;;;;;;;3.85;0.80;;;11.90;99.90;;;;;;4956873;28;20090;-78
2022/09/20 03:10:49;;;;;;;5.93;0.70;;;11.90;99.90;;;;;;4956752;28;20046;-78
2022/09/20 03:14:06;;;;;;;4.50;1.08;;;11.80;99.90;;;;;;4938857;29;20042;-78
2022/09/20 03:17:21;;;;;;;1.67;0.82;;;11.80;99.90;;;;;;4944790;28;20039;-78
2022/09/20 03:20:20;;;;;;;1.30;0.52;;;11.80;99.90;;;;;;4947419;28;20043;-77
2022/09/20 03:23:26;;;;;;;1.30;0.60;;;11.80;99.90;;;;;;4934643;29;20063;-77
2022/09/20 03:26:20;;;;;;;0.68;0.68;;;11.80;99.90;;;;;;4935091;29;20057;-77
2022/09/20 03:29:13;;;;;;;2.40;0.45;;;11.80;99.90;;;;;;4934320;29;20126;-77
2022/09/20 03:32:14;;;;;;;3.58;0.93;;;11.80;99.90;;;;;;4934864;29;20036;-78
2022/09/20 03:35:12;;;;;;;8.40;1.38;;;11.70;99.90;;;;;;4935634;29;20401;-77
2022/09/20 03:38:44;;;;;;;3.90;0.70;;;11.70;99.90;;;;;;4948719;28;20027;-78
2022/09/20 03:41:46;;;;;;;1.75;0.82;;;11.60;99.90;;;;;;4898747;29;20068;-78
2022/09/20 03:44:50;;;;;;;1.80;0.70;;;11.70;99.90;;;;;;4914004;29;20106;-78
2022/09/20 03:48:02;;;;;;;2.65;0.80;;;11.60;99.90;;;;;;4914222;29;20036;-77
2022/09/20 03:50:52;;;;;;;0.57;0.57;;;11.30;99.90;;;;;;4913546;29;20067;-76
2022/09/20 03:53:57;;;;;;;0.82;0.52;;;11.30;99.90;;;;;;4913614;29;20299;-75
2022/09/20 03:57:10;;;;;;;4.95;0.77;;;11.30;99.90;;;;;;4898698;29;20123;-75
2022/09/20 04:00:03;;;;;;;1.77;1.13;;;11.20;99.90;;;;;;4913513;29;20084;-75
2022/09/20 04:03:08;;;;;;;2.10;1.95;;;11.10;99.90;;;;;;4900367;29;20539;-76
2022/09/20 04:05:46;;;;;;;2.75;1.10;;;11.10;99.90;;;;;;4913598;29;20967;-75
2022/09/20 04:08:45;;;;;;;2.15;1.00;;;11.10;99.90;;;;;;4898120;29;20040;-75
2022/09/20 04:11:27;;;;;;;2.53;0.80;;;11.00;99.90;;;;;;4900870;29;20035;-76
2022/09/20 04:14:03;;;;;;;0.90;0.63;;;10.90;99.90;;;;;;4952915;28;20043;-76
2022/09/20 04:16:59;;;;;;;5.50;1.25;;;10.90;99.90;;;;;;4936117;29;20045;-76
2022/09/20 04:20:06;;;;;;;3.22;0.80;;;10.80;99.90;;;;;;4933319;29;20439;-76
2022/09/20 04:22:32;;;;;;;0.40;0.40;;;10.80;99.90;;;;;;4934574;29;20036;-75
2022/09/20 04:25:20;;;;;;;6.22;0.85;;;10.70;99.90;;;;;;4934840;29;20111;-76
2022/09/20 04:28:10;;;;;;;1.10;0.60;;;10.60;99.90;;;;;;4948373;28;20063;-76
2022/09/20 04:30:42;;;;;;;286.73;148.50;;;10.60;99.90;;;;;;4961772;28;20046;-74
2022/09/20 04:33:37;;;;;;;22.92;7.25;;;10.60;99.90;;;;;;4937398;29;20027;-74
2022/09/20 04:36:27;;;;;;;5.50;1.25;;;10.50;99.90;;;;;;4953109;28;20178;-74
2022/09/20 04:39:24;;;;;;;7.97;1.88;;;10.50;99.90;;;;;;4953489;28;20046;-74
2022/09/20 04:42:28;;;;;;;19.13;7.03;;;10.50;99.90;;;;;;4951970;29;20055;-74
2022/09/20 04:45:27;;;;;;;4.78;2.53;;;10.40;99.90;;;;;;4952227;28;20402;-74
2022/09/20 04:48:50;;;;;;;15.52;7.55;;;10.20;99.90;;;;;;4939986;29;20036;-75
2022/09/20 04:52:11;;;;;;;15.45;6.03;;;10.30;99.90;;;;;;4942360;29;20071;-74
2022/09/20 04:55:35;;;;;;;4.67;1.30;;;10.20;99.90;;;;;;4953290;28;20031;-74
2022/09/20 04:58:39;;;;;;;5.75;0.98;;;10.10;99.90;;;;;;4967117;28;20651;-73
2022/09/20 05:01:54;;;;;;;1.45;0.93;;;10.20;99.90;;;;;;4972256;28;20038;-72
2022/09/20 05:04:40;;;;;;;0.77;0.57;;;10.00;99.90;;;;;;4972000;28;20117;-71
2022/09/20 05:07:29;;;;;;;0.98;0.80;;;9.90;99.90;;;;;;4972393;28;20118;-72
2022/09/20 05:10:33;;;;;;;10.07;3.22;;;10.00;99.90;;;;;;4971991;28;20117;-71
2022/09/20 05:13:42;;;;;;;5.10;1.92;;;9.90;99.90;;;;;;4933393;29;20075;-71
2022/09/20 05:16:49;;;;;;;5.43;1.88;;;9.90;99.90;;;;;;4948084;29;20181;-72
2022/09/20 05:20:21;;;;;;;3.85;1.00;;;9.90;99.90;;;;;;4952710;28;20057;-72
2022/09/20 05:23:29;;;;;;;2.38;0.90;;;9.70;99.90;;;;;;4930971;29;20042;-71
2022/09/20 05:26:30;;;;;;;2.55;1.30;;;9.50;99.90;;;;;;4930980;29;20035;-71
2022/09/20 05:29:33;;;;;;;1.00;0.50;;;9.60;99.90;;;;;;4910898;29;20640;-73
2022/09/20 05:32:21;;;;;;;9.02;2.28;;;9.60;99.90;;;;;;4916525;29;20118;-73
2022/09/20 05:35:16;;;;;;;5.40;1.20;;;9.60;99.90;;;;;;4896731;29;20043;-72
2022/09/20 05:38:22;;;;;;;2.10;1.40;;;9.70;99.90;;;;;;4896507;29;20171;-72
2022/09/20 05:41:23;;;;;;;4.20;1.05;;;9.60;99.90;;;;;;4911867;29;20067;-72
2022/09/20 05:44:50;;;;;;;1.40;0.88;;;9.50;99.90;;;;;;4907375;29;20131;-72
2022/09/20 05:47:34;;;;;;;8.27;2.97;;;9.60;99.90;;;;;;4908806;29;20505;-71
2022/09/20 05:50:08;;;;;;;0.70;0.55;;;9.60;99.90;;;;;;4911101;29;20063;-71
2022/09/20 05:53:12;;;;;;;0.65;0.50;;;9.70;99.90;;;;;;4913079;29;20449;-71
2022/09/20 05:56:17;;;;;;;5.15;0.75;;;9.80;99.90;;;;;;4948891;28;20663;-71
2022/09/20 05:59:24;;;;;;;3.10;1.55;;;9.80;99.90;;;;;;4943262;28;20420;-71
2022/09/20 06:02:52;;;;;;;1.88;0.75;;;9.80;99.90;;;;;;4940307;29;20558;-71
2022/09/20 06:05:49;;;;;;;3.17;1.50;;;10.00;99.90;;;;;;4939318;29;20134;-71
2022/09/20 06:08:25;;;;;;;5.47;0.88;;;10.10;99.90;;;;;;4949444;29;20031;-71
2022/09/20 06:11:13;;;;;;;0.93;0.77;;;10.30;99.90;;;;;;4941909;29;20047;-71
2022/09/20 06:14:08;;;;;;;1.00;0.88;;;10.40;99.90;;;;;;4932471;29;20062;-71
2022/09/20 06:17:12;;;;;;;1.33;0.90;;;10.60;99.90;;;;;;4932763;29;20515;-72
2022/09/20 06:19:51;;;;;;;1.92;0.88;;;10.60;99.90;;;;;;4932533;29;20027;-71
2022/09/20 06:22:31;;;;;;;3.17;1.17;;;10.60;99.90;;;;;;4931121;29;20032;-71
2022/09/20 06:25:08;;;;;;;4.70;2.08;;;10.70;99.90;;;;;;4933419;29;20387;-71
2022/09/20 06:27:43;;;;;;;4.07;0.90;;;10.80;99.90;;;;;;4961899;28;20049;-71
2022/09/20 06:30:32;;;;;;;2.45;1.20;;;10.70;99.90;;;;;;4957507;28;20423;-71
2022/09/20 06:33:26;;;;;;;8.57;1.38;;;10.90;99.90;;;;;;4950372;28;20043;-71
2022/09/20 06:35:54;;;;;;;2.00;1.25;;;10.90;99.90;;;;;;4935288;28;20031;-70
2022/09/20 06:41:33;;;;;;;4.57;1.45;;;11.10;99.90;;;;;;4951521;29;20542;-70
2022/09/20 06:44:00;;;;;;;2.05;0.60;;;11.00;99.90;;;;;;4950139;28;20118;-72
2022/09/20 06:46:31;;;;;;;0.95;0.70;;;11.10;99.90;;;;;;4951647;28;20027;-71
2022/09/20 06:48:58;;;;;;;1.25;0.82;;;11.10;99.90;;;;;;4949803;29;20037;-71
2022/09/20 06:51:27;;;;;;;1.67;0.82;;;11.10;99.90;;;;;;4952418;28;20039;-71
2022/09/20 06:53:54;;;;;;;4.45;1.10;;;11.10;99.90;;;;;;4937878;29;20031;-71
2022/09/20 06:56:35;;;;;;;2.47;0.93;;;11.10;99.90;;;;;;4954940;28;20027;-70
2022/09/20 06:59:10;;;;;;;6.53;2.33;;;11.10;99.90;;;;;;4973083;28;20027;-71
2022/09/20 07:01:37;;;;;;;1.83;1.10;;;11.20;99.90;;;;;;4974515;28;20031;-71
2022/09/20 07:04:05;;;;;;;6.60;1.17;;;11.30;99.90;;;;;;4972621;28;20035;-71
2022/09/20 07:06:32;;;;;;;4.07;1.20;;;11.20;99.90;;;;;;4973289;28;20065;-71
2022/09/20 07:08:58;;;;;;;2.50;1.00;;;11.40;99.90;;;;;;4972428;28;20031;-71
2022/09/20 07:11:24;;;;;;;4.65;0.95;;;11.50;99.90;;;;;;4963355;28;20563;-71
2022/09/20 07:13:56;;;;;;;7.00;1.60;;;11.50;99.90;;;;;;4953200;29;20034;-71
2022/09/20 07:16:22;;;;;;;1.55;1.15;;;11.60;99.90;;;;;;4953698;28;20023;-71
2022/09/20 07:18:51;;;;;;;21.85;1.88;;;11.70;99.90;;;;;;4954443;28;20077;-71
2022/09/20 07:21:18;;;;;;;4.13;1.20;;;11.70;99.90;;;;;;4953788;28;20031;-71
2022/09/20 07:23:47;;;;;;;8.93;1.17;;;11.80;99.90;;;;;;4953159;28;20039;-71
2022/09/20 07:26:32;;;;;;;5.43;1.23;;;12.00;99.90;;;;;;4953124;29;20414;-71
2022/09/20 07:28:59;;;;;;;3.60;1.58;;;11.90;99.90;;;;;;4954463;28;20067;-71
2022/09/20 07:31:27;;;;;;;5.10;1.67;;;12.00;99.90;;;;;;4953500;28;20032;-71
2022/09/20 07:33:54;;;;;;;5.82;1.52;;;12.00;99.90;;;;;;4954180;28;20387;-71
2022/09/20 07:36:20;;;;;;;3.97;1.73;;;12.10;99.90;;;;;;4953298;29;20047;-71
2022/09/20 07:38:51;;;;;;;8.88;1.77;;;12.10;99.90;;;;;;4954334;28;20035;-71
2022/09/20 07:41:19;;;;;;;5.82;1.30;;;12.30;99.90;;;;;;4953620;28;20051;-71
2022/09/20 07:43:45;;;;;;;6.13;1.23;;;12.30;99.90;;;;;;4952664;28;20031;-71
2022/09/20 07:46:14;;;;;;;4.65;1.85;;;12.30;99.90;;;;;;4953247;28;20031;-71
2022/09/20 07:48:40;;;;;;;1.15;0.70;;;12.40;99.90;;;;;;4954164;28;20067;-71
2022/09/20 07:51:11;;;;;;;3.08;0.93;;;12.40;99.90;;;;;;4953031;29;20038;-71
2022/09/20 07:53:38;;;;;;;2.90;1.67;;;12.60;99.90;;;;;;4952708;29;20027;-71
2022/09/20 07:56:15;;;;;;;4.97;1.20;;;12.40;99.90;;;;;;4954101;28;20069;-71
2022/09/20 07:58:42;;;;;;;6.53;1.15;;;12.70;99.90;;;;;;4954022;28;20444;-72
2022/09/20 08:01:11;;;;;;;2.30;1.08;;;13.00;99.90;;;;;;4969142;28;20031;-71
2022/09/20 08:03:37;;;;;;;8.20;1.70;;;13.10;99.90;;;;;;4967795;28;20039;-71
2022/09/20 08:06:09;;;;;;;1.85;0.90;;;13.10;99.90;;;;;;4954089;28;20098;-71
2022/09/20 08:08:39;;;;;;;6.32;1.63;;;13.30;99.90;;;;;;4968786;28;20110;-71
2022/09/20 08:11:15;;;;;;;2.22;1.17;;;13.50;99.90;;;;;;4953194;28;20031;-71
2022/09/20 08:13:47;;;;;;;6.32;1.15;;;13.60;99.90;;;;;;4953548;28;20028;-71
2022/09/20 08:16:14;;;;;;;2.05;0.90;;;13.70;99.90;;;;;;4952807;28;20562;-71
2022/09/20 08:18:49;;;;;;;3.75;0.93;;;13.60;99.90;;;;;;4952846;28;20118;-71
2022/09/20 08:21:16;;;;;;;4.43;2.15;;;13.60;99.90;;;;;;4952872;29;20106;-71
2022/09/20 08:23:46;;;;;;;3.95;1.35;;;13.90;99.90;;;;;;4952236;28;20035;-72
2022/09/20 08:26:17;;;;;;;10.17;0.90;;;14.20;99.90;;;;;;4952719;29;20073;-71
2022/09/20 08:28:44;;;;;;;9.80;0.93;;;14.40;99.90;;;;;;4953430;28;20283;-72
2022/09/20 08:31:19;;;;;;;2.08;1.15;;;14.60;99.90;;;;;;4951661;28;20058;-72
2022/09/20 08:33:46;;;;;;;2.97;0.88;;;14.70;99.90;;;;;;4952050;28;20034;-72
2022/09/20 08:36:16;;;;;;;2.22;0.95;;;14.80;99.90;;;;;;4953368;29;20038;-72
2022/09/20 08:38:42;;;;;;;1.58;0.93;;;15.00;99.90;;;;;;4951893;28;20031;-73
2022/09/20 08:41:54;;;;;;;5.25;0.98;;;15.20;99.90;;;;;;4952068;29;20431;-72
2022/09/20 08:44:34;;;;;;;3.42;1.17;;;15.30;99.90;;;;;;4949799;28;20508;-73
2022/09/20 08:47:23;;;;;;;2.78;1.00;;;15.20;99.90;;;;;;4953041;28;20031;-73
2022/09/20 08:49:53;;;;;;;3.42;1.17;;;15.30;99.90;;;;;;4952347;28;20088;-73
2022/09/20 08:52:29;;;;;;;2.50;0.82;;;15.40;99.90;;;;;;4951456;28;20045;-73
2022/09/20 08:54:58;;;;;;;15.10;2.38;;;15.20;99.90;;;;;;4952353;28;20392;-73
2022/09/20 08:57:31;;;;;;;4.78;1.40;;;15.10;99.90;;;;;;4960393;28;20034;-73
2022/09/20 09:00:18;;;;;;;10.32;1.40;;;15.20;99.90;;;;;;4970754;28;20027;-73
2022/09/20 09:02:44;;;;;;;4.40;0.80;;;15.30;99.90;;;;;;4971865;28;20102;-72
2022/09/20 09:05:52;;;;;;;11.82;1.55;;;15.50;99.90;;;;;;4978179;28;20038;-72
2022/09/20 09:08:26;;;;;;;2.53;1.25;;;15.60;99.90;;;;;;4946577;28;20047;-72
2022/09/20 09:11:07;;;;;;;7.72;0.82;;;15.70;99.90;;;;;;4951214;28;20039;-72
2022/09/20 09:14:00;;;;;;;7.03;1.40;;;15.60;99.90;;;;;;4951830;28;20059;-72
2022/09/20 09:16:29;;;;;;;5.60;1.50;;;15.50;99.90;;;;;;4951794;28;20285;-72
2022/09/20 09:18:56;;;;;;;4.80;1.30;;;15.30;99.90;;;;;;4952477;28;20030;-72
2022/09/20 09:21:29;;;;;;;8.00;2.22;;;15.40;99.90;;;;;;4952850;28;20042;-72
2022/09/20 09:24:11;;;;;;;4.32;0.98;;;15.40;99.90;;;;;;4951076;29;20102;-72
2022/09/20 09:26:45;;;;;;;2.08;0.98;;;15.50;99.90;;;;;;4955001;28;20031;-72
2022/09/20 09:29:23;;;;;;;6.53;0.90;;;15.60;99.90;;;;;;4979907;28;20039;-71
2022/09/20 09:31:53;;;;;;;8.43;0.82;;;15.70;99.90;;;;;;4986805;28;20035;-71
2022/09/20 09:34:32;;;;;;;2.20;0.82;;;15.60;99.90;;;;;;4970282;28;20030;-71
2022/09/20 09:36:58;;;;;;;4.43;0.95;;;15.80;99.90;;;;;;4986377;28;20034;-71
2022/09/20 09:39:36;;;;;;;2.22;0.85;;;15.60;99.90;;;;;;4971544;28;20495;-70
2022/09/20 09:42:22;;;;;;;1.92;0.73;;;15.70;99.90;;;;;;4971157;28;20582;-70
2022/09/20 09:44:49;;;;;;;4.88;1.00;;;15.90;99.90;;;;;;4954389;28;20041;-71
2022/09/20 09:47:28;;;;;;;9.32;1.05;;;16.00;99.90;;;;;;4971261;28;20035;-71
2022/09/20 09:49:58;;;;;;;8.98;1.83;;;16.10;99.90;;;;;;4969336;28;20458;-70
2022/09/20 09:52:25;;;;;;;3.10;1.48;;;16.10;99.90;;;;;;4970548;28;20039;-71
2022/09/20 09:54:58;;;;;;;1.42;0.70;;;16.40;99.90;;;;;;4969907;28;20343;-71
2022/09/20 09:58:15;;;;;;;2.80;1.30;;;16.30;99.90;;;;;;4969475;28;20524;-71
2022/09/20 10:00:45;;;;;;;6.03;1.05;;;16.50;99.90;;;;;;4891696;29;20044;-71
2022/09/20 10:03:34;;;;;;;6.00;0.90;;;16.80;99.90;;;;;;4958516;28;20046;-71
2022/09/20 10:06:19;;;;;;;1.73;0.95;;;16.60;99.90;;;;;;4970249;28;20035;-71
2022/09/20 10:09:04;;;;;;;10.75;1.85;;;16.50;99.90;;;;;;4970899;28;20807;-70
2022/09/20 10:12:00;;;;;;;10.70;1.48;;;16.40;99.90;;;;;;4958467;28;20074;-71
2022/09/20 10:15:06;;;;;;;16.48;1.33;;;16.10;99.90;;;;;;4950509;28;20055;-71
2022/09/20 10:18:03;;;;;;;2.95;1.60;;;16.00;99.90;;;;;;4952152;29;20086;-72
2022/09/20 10:21:01;;;;;;;3.35;1.35;;;15.70;99.90;;;;;;4951601;29;20027;-71
2022/09/20 10:23:56;;;;;;;3.20;0.52;;;15.40;99.90;;;;;;4950994;29;20035;-71
2022/09/20 10:27:01;;;;;;;3.17;1.65;;;15.60;99.90;;;;;;4954090;28;20042;-72
2022/09/20 10:29:57;;;;;;;1.77;0.98;;;15.60;99.90;;;;;;4955277;28;20043;-71
2022/09/20 10:32:50;;;;;;;1.13;0.52;;;15.60;99.90;;;;;;4955407;29;20039;-72
2022/09/20 10:35:24;;;;;;;3.38;1.23;;;15.50;99.90;;;;;;4955655;28;20027;-72
2022/09/20 10:37:50;;;;;;;4.03;1.48;;;16.20;99.90;;;;;;4955699;29;20040;-71
2022/09/20 10:43:42;;;;;;;1.67;1.00;;;16.70;99.90;;;;;;4954752;28;20043;-70
2022/09/20 10:46:25;;;;;;;13.53;1.07;;;16.40;99.90;;;;;;4969948;28;20035;-72
2022/09/20 10:49:23;;;;;;;7.25;1.02;;;16.60;99.90;;;;;;4954807;28;20038;-72
2022/09/20 10:52:32;;;;;;;10.50;1.77;;;16.50;99.90;;;;;;4944297;28;20102;-72
2022/09/20 10:55:27;;;;;;;0.80;0.38;;;16.20;99.90;;;;;;4953897;29;20032;-72
2022/09/20 10:58:25;;;;;;;0.75;0.47;;;15.90;99.90;;;;;;4954035;28;20435;-72
2022/09/20 11:01:09;;;;;;;1.20;0.20;;;15.20;99.90;;;;;;4932281;29;20138;-77
2022/09/20 11:03:54;;;;;;;2.90;1.42;;;14.40;99.90;;;;;;4954699;29;20106;-77
2022/09/20 11:06:49;;;;;;;1.05;0.30;;;13.90;99.90;;;;;;4953875;29;20459;-77
2022/09/20 11:09:22;;;;;;;0.60;0.30;;;13.70;99.90;;;;;;4953705;29;20031;-77
2022/09/20 11:12:14;;;;;;;7.30;1.15;;;13.70;99.90;;;;;;4939769;29;20040;-77
2022/09/20 11:15:13;;;;;;;1.23;0.90;;;13.80;99.90;;;;;;4948981;29;20024;-77
2022/09/20 11:18:08;;;;;;;2.67;0.70;;;14.10;99.90;;;;;;4948446;29;20027;-77
2022/09/20 11:20:46;;;;;;;1.00;0.60;;;14.50;99.90;;;;;;4935311;29;20118;-77
2022/09/20 11:23:26;;;;;;;1.00;0.57;;;14.90;99.90;;;;;;4949692;29;20063;-75
2022/09/20 11:25:59;;;;;;;0.63;0.27;;;15.20;99.90;;;;;;4935814;29;20463;-75
2022/09/20 11:28:39;;;;;;;2.90;0.75;;;15.30;99.90;;;;;;4966532;28;20279;-77
2022/09/20 11:31:29;;;;;;;0.50;0.35;;;15.30;99.90;;;;;;4953279;29;20072;-77
2022/09/20 11:34:21;;;;;;;0.68;0.30;;;15.10;99.90;;;;;;4952989;28;20067;-77
2022/09/20 11:36:59;;;;;;;3.47;0.68;;;14.90;99.90;;;;;;4952793;28;20034;-76
2022/09/20 11:39:46;;;;;;;3.47;0.60;;;14.70;99.90;;;;;;4954225;28;20452;-77
2022/09/20 11:42:29;;;;;;;0.52;0.30;;;14.60;99.90;;;;;;4952858;29;20484;-77
2022/09/20 11:44:55;;;;;;;2.15;0.45;;;14.50;99.90;;;;;;4953012;29;20502;-77
2022/09/20 11:47:42;;;;;;;0.88;0.32;;;14.40;99.90;;;;;;4953401;29;20031;-77
2022/09/20 11:50:50;;;;;;;1.23;0.70;;;14.20;99.90;;;;;;4953862;29;20038;-77
2022/09/20 11:53:40;;;;;;;3.35;1.40;;;14.20;99.90;;;;;;4954250;29;20046;-77
2022/09/20 11:56:28;;;;;;;3.78;0.57;;;14.40;99.90;;;;;;4954109;29;20035;-77
2022/09/20 11:59:03;;;;;;;0.68;0.50;;;14.80;99.90;;;;;;4953671;29;20408;-77
2022/09/20 12:01:41;;;;;;;0.73;0.70;;;14.50;99.90;;;;;;4952486;29;20093;-76
2022/09/20 12:04:25;;;;;;;0.50;0.30;;;14.70;99.90;;;;;;4952769;29;20031;-76
2022/09/20 12:07:16;;;;;;;1.33;0.68;;;15.10;99.90;;;;;;4952820;29;20020;-75
2022/09/20 12:09:59;;;;;;;4.65;1.45;;;15.60;99.90;;;;;;4953804;29;20518;-76
2022/09/20 12:12:43;;;;;;;2.40;1.10;;;15.50;99.90;;;;;;4933433;29;20031;-75
2022/09/20 12:15:37;;;;;;;1.98;0.80;;;16.50;99.90;;;;;;4948877;29;20496;-76
2022/09/20 12:18:31;;;;;;;1.35;0.47;;;16.70;99.90;;;;;;4948752;29;20039;-76
2022/09/20 12:21:04;;;;;;;0.68;0.43;;;17.60;99.90;;;;;;4933797;29;20059;-75
2022/09/20 12:23:41;;;;;;;0.63;0.40;;;17.80;99.90;;;;;;4934362;29;20098;-75
2022/09/20 12:26:19;;;;;;;0.73;0.35;;;18.70;99.00;;;;;;4933880;29;20122;-76
2022/09/20 12:28:54;;;;;;;2.75;0.45;;;18.70;97.40;;;;;;4939121;29;20518;-76
2022/09/20 12:31:37;;;;;;;4.10;0.80;;;19.30;96.40;;;;;;4953357;29;20043;-76
2022/09/20 12:34:09;;;;;;;1.45;0.70;;;19.30;95.40;;;;;;4968043;28;20065;-76
2022/09/20 12:36:54;;;;;;;2.78;0.80;;;18.60;95.50;;;;;;4958469;28;20023;-75
2022/09/20 12:39:31;;;;;;;4.65;1.00;;;18.70;96.40;;;;;;4952921;29;20098;-76
2022/09/20 12:42:04;;;;;;;2.78;0.82;;;18.00;97.20;;;;;;4952263;28;20082;-77
2022/09/20 12:44:48;;;;;;;1.65;1.17;;;18.10;98.70;;;;;;4952209;29;20027;-75
2022/09/20 12:47:23;;;;;;;4.07;0.90;;;18.20;98.20;;;;;;4952955;29;20070;-75
2022/09/20 12:53:02;;;;;;;1.15;0.80;;;18.00;97.00;;;;;;4952540;29;20067;-76
2022/09/20 12:55:37;;;;;;;0.70;0.50;;;17.90;96.90;;;;;;4953213;28;20638;-76
2022/09/20 12:58:14;;;;;;;1.55;0.68;;;18.00;97.00;;;;;;4951480;28;20492;-75
2022/09/20 13:00:56;;;;;;;1.13;0.55;;;17.80;97.60;;;;;;4952779;29;20027;-76
2022/09/20 13:03:45;;;;;;;5.93;0.95;;;17.90;97.60;;;;;;4952921;29;20027;-76
2022/09/20 13:06:15;;;;;;;2.83;0.80;;;17.70;97.80;;;;;;4952746;28;20038;-76
2022/09/20 13:08:58;;;;;;;2.40;0.63;;;17.80;97.10;;;;;;4952649;29;20672;-76
2022/09/20 13:11:37;;;;;;;2.83;0.57;;;17.90;97.20;;;;;;4941848;29;20075;-76
2022/09/20 13:14:11;;;;;;;1.42;0.50;;;17.50;96.20;;;;;;4947031;29;20030;-76
2022/09/20 13:16:54;;;;;;;0.98;0.55;;;17.40;96.40;;;;;;4933397;29;20032;-76
2022/09/20 13:19:28;;;;;;;2.17;0.45;;;17.30;95.90;;;;;;4933329;29;20066;-76
2022/09/20 13:22:04;;;;;;;1.27;0.65;;;16.80;97.30;;;;;;4947710;29;20057;-76
2022/09/20 13:24:36;;;;;;;1.95;0.70;;;16.80;96.90;;;;;;4933538;29;20119;-76
2022/09/20 13:27:12;;;;;;;0.73;0.40;;;16.80;96.90;;;;;;4953582;28;20031;-75
2022/09/20 13:29:43;;;;;;;1.40;0.70;;;16.70;97.30;;;;;;4951017;29;20110;-76
2022/09/20 13:32:29;;;;;;;0.98;0.50;;;16.40;97.20;;;;;;4950568;29;20038;-76
2022/09/20 13:35:15;;;;;;;2.03;0.93;;;16.40;98.10;;;;;;4951152;29;20122;-77
2022/09/20 13:37:52;;;;;;;1.60;0.93;;;16.40;97.70;;;;;;4952139;29;20074;-77
2022/09/20 13:40:32;;;;;;;2.50;1.05;;;16.50;97.60;;;;;;4952078;29;20035;-76
2022/09/20 13:43:04;;;;;;;2.40;1.08;;;16.50;98.50;;;;;;4950445;29;20492;-76
2022/09/20 13:45:31;;;;;;;2.00;0.93;;;16.60;98.40;;;;;;4951039;29;20042;-76
2022/09/20 13:48:02;;;;;;;2.75;0.85;;;16.40;98.50;;;;;;4950944;29;20117;-76
2022/09/20 13:50:33;;;;;;;2.05;0.80;;;16.50;98.30;;;;;;4950424;29;20042;-76
2022/09/20 13:53:04;;;;;;;6.03;0.80;;;16.50;98.00;;;;;;4950478;29;20047;-76
2022/09/20 13:55:37;;;;;;;5.35;0.50;;;16.60;98.50;;;;;;4950734;29;20471;-76
2022/09/20 13:58:17;;;;;;;1.50;0.68;;;16.50;98.30;;;;;;4951936;28;20070;-76
2022/09/20 14:01:03;;;;;;;3.83;1.25;;;16.40;98.50;;;;;;4950197;29;20619;-76
2022/09/20 14:03:34;;;;;;;3.78;1.00;;;16.20;99.10;;;;;;4950368;29;20472;-76
2022/09/20 14:06:27;;;;;;;1.10;0.50;;;16.00;99.70;;;;;;4950816;28;20500;-69
2022/09/20 14:08:53;;;;;;;5.88;0.95;;;15.80;99.90;;;;;;4950453;29;20085;-70
2022/09/20 14:11:24;;;;;;;5.70;1.10;;;15.80;99.90;;;;;;4941035;29;20043;-69
2022/09/20 14:14:01;;;;;;;2.38;0.90;;;15.70;99.90;;;;;;4946589;29;20059;-70
2022/09/20 14:16:47;;;;;;;1.30;0.50;;;15.70;99.90;;;;;;4947284;29;20126;-70
2022/09/20 14:19:17;;;;;;;0.95;0.57;;;15.70;99.90;;;;;;4944946;29;20027;-69
2022/09/20 14:21:44;;;;;;;9.57;0.85;;;15.90;99.90;;;;;;4941280;28;20126;-69
2022/09/20 14:24:24;;;;;;;1.02;0.55;;;15.90;99.90;;;;;;4965893;28;20090;-69
2022/09/20 14:27:19;;;;;;;5.67;0.70;;;15.90;99.90;;;;;;4956279;28;20035;-68